createdAt,value
2022-09-03T00:01:51.930Z,14.65
2022-09-03T00:07:03.254Z,14.53
2022-09-03T00:12:43.381Z,14.23
2022-09-03T00:17:50.364Z,13.84
2022-09-03T00:22:55.548Z,13.62
2022-09-03T00:27:59.837Z,13.51
2022-09-03T00:33:07.024Z,13.64
2022-09-03T00:38:09.488Z,13.60
2022-09-03T00:43:19.921Z,13.20
2022-09-03T00:48:28.736Z,13.30
2022-09-03T00:53:42.012Z,13.29
2022-09-03T00:58:51.952Z,13.23
2022-09-03T01:04:08.412Z,13.25
2022-09-03T01:09:35.563Z,12.92
2022-09-03T01:14:37.165Z,12.52
2022-09-03T01:19:47.911Z,12.46
2022-09-03T01:24:58.856Z,12.35
2022-09-03T01:30:17.064Z,12.47
2022-09-03T01:35:32.056Z,12.58
2022-09-03T01:40:51.762Z,12.80
2022-09-03T01:46:00.700Z,12.84
2022-09-03T01:51:02.518Z,12.64
2022-09-03T01:56:59.252Z,12.37
2022-09-03T02:02:27.795Z,12.16
2022-09-03T02:07:36.266Z,12.02
2022-09-03T02:12:40.223Z,11.81
2022-09-03T02:17:44.085Z,12.19
2022-09-03T02:22:47.335Z,12.17
2022-09-03T02:27:50.943Z,12.30
2022-09-03T02:32:52.647Z,12.37
2022-09-03T02:37:54.512Z,12.44
2022-09-03T02:42:56.229Z,12.36
2022-09-03T02:48:00.697Z,12.43
2022-09-03T02:53:02.479Z,12.60
2022-09-03T02:58:06.938Z,12.66
2022-09-03T03:03:08.597Z,12.73
2022-09-03T03:08:12.295Z,12.78
2022-09-03T03:13:14.290Z,12.78
2022-09-03T03:18:17.458Z,12.40
2022-09-03T03:23:19.133Z,12.25
2022-09-03T03:28:21.124Z,12.18
2022-09-03T03:33:22.839Z,12.36
2022-09-03T03:38:26.256Z,12.49
2022-09-03T03:43:28.090Z,12.48
2022-09-03T03:48:29.833Z,12.56
2022-09-03T03:53:31.953Z,12.55
2022-09-03T03:58:34.040Z,12.59
2022-09-03T04:03:37.216Z,12.44
2022-09-03T04:08:43.625Z,12.32
2022-09-03T04:13:48.448Z,12.41
2022-09-03T04:18:51.012Z,12.44
2022-09-03T04:23:53.729Z,12.48
2022-09-03T04:28:55.573Z,12.22
2022-09-03T04:33:57.387Z,11.93
2022-09-03T04:39:01.651Z,11.96
2022-09-03T04:44:03.331Z,12.07
2022-09-03T04:49:05.210Z,11.98
2022-09-03T04:54:07.181Z,11.97
2022-09-03T04:59:09.764Z,12.17
2022-09-03T05:04:11.458Z,12.50
2022-09-03T05:09:13.321Z,13.17
2022-09-03T05:14:14.975Z,13.63
2022-09-03T05:19:16.707Z,14.47
2022-09-03T05:24:18.747Z,14.72
2022-09-03T05:29:21.981Z,14.99
2022-09-03T05:34:23.844Z,15.23
2022-09-03T05:39:25.712Z,14.95
2022-09-03T05:44:27.369Z,15.35
2022-09-03T05:49:30.325Z,15.59
2022-09-03T05:54:32.173Z,15.84
2022-09-03T05:59:33.791Z,15.80
2022-09-03T06:04:35.481Z,16.03
2022-09-03T06:09:37.136Z,16.33
2022-09-03T06:14:39.010Z,16.58
2022-09-03T06:19:40.880Z,16.79
2022-09-03T06:24:42.585Z,16.99
2022-09-03T06:29:44.814Z,17.26
2022-09-03T06:34:46.636Z,17.46
2022-09-03T06:39:50.560Z,17.68
2022-09-03T06:44:52.352Z,17.87
2022-09-03T06:49:54.227Z,18.01
2022-09-03T06:54:55.909Z,18.22
2022-09-03T06:59:57.543Z,18.34
2022-09-03T07:04:59.653Z,18.60
2022-09-03T07:10:01.887Z,18.94
2022-09-03T07:15:04.284Z,19.36
2022-09-03T07:20:06.727Z,19.57
2022-09-03T07:25:09.005Z,19.53
2022-09-03T07:30:11.578Z,19.65
2022-09-03T07:35:13.692Z,19.92
2022-09-03T07:40:16.184Z,20.25
2022-09-03T07:45:17.985Z,20.25
2022-09-03T07:50:19.913Z,20.48
2022-09-03T07:55:21.824Z,20.57
2022-09-03T08:00:23.883Z,20.59
2022-09-03T08:05:25.729Z,20.66
2022-09-03T08:10:30.607Z,20.57
2022-09-03T08:15:33.616Z,20.77
2022-09-03T08:20:37.816Z,20.69
2022-09-03T08:25:39.543Z,20.83
2022-09-03T08:30:41.356Z,20.92
2022-09-03T08:35:43.204Z,21.11
2022-09-03T08:40:46.133Z,21.36
2022-09-03T08:45:48.025Z,21.58
2022-09-03T08:50:56.104Z,21.56
2022-09-03T08:56:09.043Z,21.55
2022-09-03T09:01:24.313Z,21.76
2022-09-03T09:07:00.950Z,21.78
2022-09-03T09:12:27.923Z,22.05
2022-09-03T09:17:32.531Z,22.14
2022-09-03T09:22:47.110Z,22.44
2022-09-03T09:28:03.796Z,22.64
2022-09-03T09:33:07.187Z,22.75
2022-09-03T09:38:10.589Z,22.90
2022-09-03T09:43:20.532Z,22.96
2022-09-03T09:48:37.616Z,22.95
2022-09-03T09:53:40.695Z,23.08
2022-09-03T09:58:42.360Z,23.07
2022-09-03T10:03:55.377Z,22.94
2022-09-03T10:09:18.256Z,22.84
2022-09-03T10:14:31.105Z,23.18
2022-09-03T10:20:13.049Z,23.36
2022-09-03T10:25:17.618Z,23.62
2022-09-03T10:30:20.060Z,23.79
2022-09-03T10:35:32.051Z,23.91
2022-09-03T10:40:51.466Z,24.03
2022-09-03T10:46:06.357Z,24.21
2022-09-03T10:51:40.507Z,24.34
2022-09-03T10:57:06.904Z,24.41
2022-09-03T11:02:34.702Z,24.64
2022-09-03T11:08:10.078Z,24.71
2022-09-03T11:13:25.436Z,24.44
2022-09-03T11:18:34.990Z,24.32
2022-09-03T11:23:42.760Z,24.50
2022-09-03T11:29:15.567Z,24.80
2022-09-03T11:34:23.627Z,24.98
2022-09-03T11:39:40.447Z,25.15
2022-09-03T11:44:51.374Z,25.21
2022-09-03T11:50:08.389Z,25.20
2022-09-03T11:55:10.062Z,25.36
2022-09-03T12:00:18.029Z,25.39
2022-09-03T12:05:37.177Z,25.42
2022-09-03T12:10:45.081Z,25.49
2022-09-03T12:16:14.292Z,25.55
2022-09-03T12:21:17.195Z,25.70
2022-09-03T12:26:19.819Z,25.76
2022-09-03T12:31:33.022Z,25.51
2022-09-03T12:36:39.180Z,25.57
2022-09-03T12:42:01.483Z,25.77
2022-09-03T12:47:41.311Z,25.68
2022-09-03T12:52:47.030Z,25.69
2022-09-03T12:58:04.323Z,25.87
2022-09-03T13:03:21.378Z,25.94
2022-09-03T13:08:37.968Z,25.99
2022-09-03T13:13:40.772Z,25.64
2022-09-03T13:18:49.777Z,26.01
2022-09-03T13:23:51.299Z,26.05
2022-09-03T13:29:35.948Z,26.15
2022-09-03T13:34:43.097Z,26.13
2022-09-03T13:39:54.536Z,26.09
2022-09-03T13:45:11.125Z,26.17
2022-09-03T13:50:24.576Z,25.83
2022-09-03T13:55:37.872Z,26.10
2022-09-03T14:00:54.965Z,26.12
2022-09-03T14:06:18.525Z,26.05
2022-09-03T14:11:49.011Z,25.95
2022-09-03T14:17:01.277Z,25.88
2022-09-03T14:22:13.735Z,25.85
2022-09-03T14:27:27.571Z,25.91
2022-09-03T14:32:32.105Z,26.08
2022-09-03T14:37:38.954Z,26.12
2022-09-03T14:42:46.719Z,26.13
2022-09-03T14:47:54.771Z,26.16
2022-09-03T14:52:59.463Z,26.16
2022-09-03T14:58:13.001Z,26.21
2022-09-03T15:03:37.107Z,26.18
2022-09-03T15:09:03.537Z,26.08
2022-09-03T15:14:50.188Z,25.86
2022-09-03T15:20:35.642Z,25.83
2022-09-03T15:25:59.225Z,25.99
2022-09-03T15:31:18.470Z,25.91
2022-09-03T15:36:22.399Z,25.73
2022-09-03T15:41:34.606Z,25.78
2022-09-03T15:46:39.562Z,25.75
2022-09-03T15:52:25.569Z,25.55
2022-09-03T15:57:35.384Z,25.61
2022-09-03T16:03:10.166Z,25.42
2022-09-03T16:08:24.515Z,25.43
2022-09-03T16:14:02.409Z,25.25
2022-09-03T16:19:13.097Z,25.26
2022-09-03T16:24:31.260Z,25.06
2022-09-03T16:29:33.324Z,24.99
2022-09-03T16:34:52.387Z,24.93
2022-09-03T16:40:09.721Z,24.71
2022-09-03T16:45:11.938Z,24.66
2022-09-03T16:50:47.811Z,24.55
2022-09-03T16:56:04.562Z,24.46
2022-09-03T17:01:12.567Z,24.24
2022-09-03T17:06:21.844Z,23.98
2022-09-03T17:11:37.863Z,23.87
2022-09-03T17:16:42.517Z,23.68
2022-09-03T17:22:20.148Z,23.49
2022-09-03T17:27:31.148Z,23.32
2022-09-03T17:32:47.749Z,23.15
2022-09-03T17:38:14.990Z,23.08
2022-09-03T17:43:34.489Z,22.93
2022-09-03T17:48:43.674Z,22.83
2022-09-03T17:53:59.661Z,22.74
2022-09-03T17:59:09.529Z,22.62
2022-09-03T18:04:38.864Z,22.50
2022-09-03T18:09:48.903Z,22.40
2022-09-03T18:15:04.628Z,22.31
2022-09-03T18:20:29.709Z,22.20
2022-09-03T18:25:54.017Z,22.18
2022-09-03T18:31:14.073Z,22.12
2022-09-03T18:36:34.495Z,22.06
2022-09-03T18:42:19.808Z,21.98
2022-09-03T18:48:15.302Z,21.93
2022-09-03T18:54:16.815Z,21.98
2022-09-03T18:59:44.879Z,22.02
2022-09-03T19:05:43.991Z,22.11
2022-09-03T19:11:14.175Z,22.23
2022-09-03T19:16:46.249Z,22.24
2022-09-03T19:22:18.234Z,22.28
2022-09-03T19:27:59.549Z,22.28
2022-09-03T19:33:39.688Z,22.26
2022-09-03T19:39:49.711Z,22.21
2022-09-03T19:45:36.393Z,22.16
2022-09-03T19:51:03.187Z,22.18
2022-09-03T19:56:47.109Z,22.08
2022-09-03T20:02:07.965Z,22.11
2022-09-03T20:07:29.032Z,22.10
2022-09-03T20:12:37.085Z,22.05
2022-09-03T20:17:43.786Z,21.98
2022-09-03T20:22:54.251Z,22.02
2022-09-03T20:28:28.140Z,21.96
2022-09-03T20:33:42.876Z,21.95
2022-09-03T20:38:56.528Z,21.84
2022-09-03T20:44:08.293Z,21.86
2022-09-03T20:49:30.828Z,21.77
2022-09-03T20:54:47.271Z,21.69
2022-09-03T21:00:12.583Z,21.66
2022-09-03T21:05:20.997Z,21.60
2022-09-03T21:10:55.074Z,21.51
2022-09-03T21:15:59.984Z,21.48
2022-09-03T21:21:43.088Z,21.43
2022-09-03T21:26:51.922Z,21.45
2022-09-03T21:32:10.093Z,21.43
2022-09-03T21:37:14.117Z,21.40
2022-09-03T21:42:36.443Z,21.35
2022-09-03T21:47:44.937Z,21.31
2022-09-03T21:53:15.281Z,21.25
2022-09-03T21:58:55.624Z,21.21
2022-09-03T22:03:57.301Z,21.17
2022-09-03T22:09:12.447Z,21.11
2022-09-03T22:14:16.828Z,21.09
2022-09-03T22:19:18.472Z,21.08
2022-09-03T22:24:38.541Z,21.06
2022-09-03T22:29:53.336Z,21.09
2022-09-03T22:35:30.689Z,21.08
2022-09-03T22:40:35.085Z,21.08
2022-09-03T22:46:11.778Z,21.00
2022-09-03T22:51:13.664Z,20.95
2022-09-03T22:56:22.304Z,20.92
2022-09-03T23:01:36.642Z,20.86
2022-09-03T23:06:55.409Z,20.84
2022-09-03T23:12:00.806Z,20.79
2022-09-03T23:17:11.193Z,20.78
2022-09-03T23:22:25.476Z,20.77
2022-09-03T23:27:56.953Z,20.69
2022-09-03T23:33:00.067Z,20.70
2022-09-03T23:38:20.645Z,20.68
2022-09-03T23:43:37.780Z,20.64
2022-09-03T23:48:48.647Z,20.60
2022-09-03T23:54:18.156Z,20.51
2022-09-03T23:59:22.713Z,20.46
